createdAt,value
2019-04-11T00:00:53.782Z,23.13
2019-04-11T00:05:59.268Z,22.87
2019-04-11T00:11:04.379Z,22.33
2019-04-11T00:16:09.843Z,18.57
2019-04-11T00:21:14.926Z,25.70
2019-04-11T00:26:20.086Z,21.83
2019-04-11T00:31:25.140Z,22.57
2019-04-11T00:36:30.519Z,23.73
2019-04-11T00:41:34.702Z,25.90
2019-04-11T00:46:38.841Z,28.00
2019-04-11T00:51:44.314Z,24.17
2019-04-11T00:56:48.527Z,22.97
2019-04-11T01:01:53.390Z,26.00
2019-04-11T01:06:58.586Z,28.53
2019-04-11T01:12:02.969Z,27.10
2019-04-11T01:17:09.333Z,29.30
2019-04-11T01:22:16.084Z,30.33
2019-04-11T01:27:21.620Z,28.90
2019-04-11T01:32:28.495Z,27.90
2019-04-11T01:37:33.818Z,28.67
2019-04-11T01:42:39.639Z,27.23
2019-04-11T01:48:03.624Z,30.17
2019-04-11T01:53:08.938Z,30.43
2019-04-11T01:58:14.244Z,33.40
2019-04-11T02:03:25.736Z,31.27
2019-04-11T02:08:31.289Z,31.00
2019-04-11T02:13:36.346Z,31.30
2019-04-11T02:18:41.551Z,32.33
2019-04-11T02:24:03.600Z,32.40
2019-04-11T02:29:08.987Z,31.27
2019-04-11T02:34:16.018Z,27.70
2019-04-11T02:39:22.940Z,32.60
2019-04-11T02:44:39.882Z,31.50
2019-04-11T02:49:35.826Z,30.03
2019-04-11T02:54:41.230Z,27.57
2019-04-11T02:59:48.983Z,32.10
2019-04-11T03:04:55.648Z,29.17
2019-04-11T03:10:03.157Z,29.27
2019-04-11T03:15:25.637Z,30.70
2019-04-11T03:20:24.197Z,32.97
2019-04-11T03:25:22.624Z,28.07
2019-04-11T03:30:44.742Z,30.67
2019-04-11T03:36:27.668Z,29.90
2019-04-11T03:40:57.704Z,30.97
2019-04-11T03:46:05.146Z,29.03
2019-04-11T03:50:56.737Z,35.03
2019-04-11T03:55:59.132Z,32.60
2019-04-11T04:01:08.442Z,28.80
2019-04-11T04:06:10.211Z,30.90
2019-04-11T04:11:22.959Z,32.67
2019-04-11T04:16:52.704Z,31.77
2019-04-11T04:22:07.916Z,28.17
2019-04-11T04:27:13.229Z,29.27
2019-04-11T04:32:19.270Z,29.10
2019-04-11T04:37:27.151Z,34.63
2019-04-11T04:42:39.306Z,29.57
2019-04-11T04:47:48.043Z,28.50
2019-04-11T04:52:48.963Z,29.13
2019-04-11T04:57:55.479Z,30.20
2019-04-11T05:03:02.177Z,27.47
2019-04-11T05:08:08.336Z,30.27
2019-04-11T05:13:15.718Z,28.10
2019-04-11T05:18:21.887Z,27.87
2019-04-11T05:23:29.797Z,27.13
2019-04-11T05:28:35.336Z,28.00
2019-04-11T05:33:41.300Z,27.20
2019-04-11T05:38:48.639Z,29.67
2019-04-11T05:43:54.076Z,25.63
2019-04-11T05:49:21.171Z,26.33
2019-04-11T05:54:27.977Z,27.27
2019-04-11T05:59:33.243Z,28.63
2019-04-11T06:04:55.937Z,30.73
2019-04-11T06:10:08.567Z,27.80
2019-04-11T06:15:20.084Z,25.97
2019-04-11T06:20:40.422Z,23.20
2019-04-11T06:26:09.190Z,27.40
2019-04-11T06:31:45.318Z,23.73
2019-04-11T06:37:14.182Z,23.80
2019-04-11T06:42:37.266Z,25.10
2019-04-11T06:48:03.184Z,19.80
2019-04-11T06:53:09.750Z,28.53
2019-04-11T06:58:25.890Z,20.43
2019-04-11T07:03:36.256Z,20.30
2019-04-11T07:08:51.554Z,20.20
2019-04-11T07:14:15.928Z,21.80
2019-04-11T07:19:48.024Z,18.67
2019-04-11T07:25:18.130Z,22.10
2019-04-11T07:30:45.317Z,20.23
2019-04-11T07:36:12.181Z,17.17
2019-04-11T07:41:38.932Z,21.70
2019-04-11T07:46:55.827Z,17.07
2019-04-11T07:52:02.869Z,20.23
2019-04-11T07:57:26.861Z,18.83
2019-04-11T08:02:53.173Z,17.73
2019-04-11T08:08:23.230Z,18.30
2019-04-11T08:13:34.634Z,19.20
2019-04-11T08:18:48.831Z,18.20
2019-04-11T08:23:56.180Z,15.20
2019-04-11T08:29:09.248Z,17.73
2019-04-11T08:34:09.007Z,16.30
2019-04-11T08:39:20.672Z,14.40
2019-04-11T08:44:39.670Z,14.77
2019-04-11T08:49:52.439Z,12.70
2019-04-11T08:55:10.355Z,14.70
2019-04-11T09:00:35.813Z,13.30
2019-04-11T09:06:04.462Z,13.77
2019-04-11T09:11:30.970Z,16.60
2019-04-11T09:16:54.073Z,11.97
2019-04-11T09:22:20.496Z,12.33
2019-04-11T09:27:44.748Z,11.37
2019-04-11T09:33:17.101Z,12.30
2019-04-11T09:38:24.277Z,12.20
2019-04-11T09:43:31.768Z,10.20
2019-04-11T09:48:56.195Z,14.27
2019-04-11T09:54:08.570Z,11.20
2019-04-11T09:59:20.812Z,14.77
2019-04-11T10:04:27.704Z,12.53
2019-04-11T10:09:50.749Z,12.10
2019-04-11T10:14:57.739Z,9.60
2019-04-11T10:20:09.207Z,12.90
2019-04-11T10:25:30.827Z,11.30
2019-04-11T10:31:08.536Z,12.10
2019-04-11T10:36:25.357Z,12.70
2019-04-11T10:41:35.729Z,13.57
2019-04-11T10:46:55.746Z,10.97
2019-04-11T10:52:06.461Z,11.40
2019-04-11T10:57:36.067Z,11.20
2019-04-11T11:03:09.826Z,13.33
2019-04-11T11:08:23.573Z,13.00
2019-04-11T11:13:32.200Z,11.97
2019-04-11T11:19:24.435Z,8.97
2019-04-11T11:24:40.226Z,10.73
2019-04-11T11:30:04.900Z,11.83
2019-04-11T11:35:32.356Z,10.60
2019-04-11T11:40:58.552Z,9.07
2019-04-11T11:46:26.678Z,9.10
2019-04-11T11:51:49.849Z,8.83
2019-04-11T11:56:58.217Z,10.87
2019-04-11T12:02:10.749Z,8.00
2019-04-11T12:07:18.854Z,7.20
2019-04-11T12:12:40.159Z,11.03
2019-04-11T12:18:07.441Z,13.20
2019-04-11T12:23:46.281Z,11.23
2019-04-11T12:29:06.404Z,11.27
2019-04-11T12:34:32.464Z,14.57
2019-04-11T12:45:44.301Z,10.43
2019-04-11T12:51:08.991Z,10.90
2019-04-11T12:56:44.334Z,9.37
2019-04-11T13:02:27.681Z,9.47
2019-04-11T13:08:06.801Z,11.40
2019-04-11T13:13:32.677Z,8.60
2019-04-11T13:19:03.361Z,13.93
2019-04-11T13:24:26.939Z,11.20
2019-04-11T13:29:56.234Z,9.03
2019-04-11T13:35:08.289Z,9.63
2019-04-11T13:40:31.362Z,9.73
2019-04-11T13:45:46.718Z,9.23
2019-04-11T13:50:53.310Z,10.00
2019-04-11T13:55:59.961Z,11.00
2019-04-11T14:01:15.380Z,11.67
2019-04-11T14:06:31.480Z,10.17
2019-04-11T14:11:37.401Z,14.20
2019-04-11T14:17:09.715Z,11.67
2019-04-11T14:22:20.719Z,15.73
2019-04-11T14:27:27.598Z,16.03
2019-04-11T14:32:34.436Z,16.07
2019-04-11T14:37:55.093Z,15.80
2019-04-11T14:43:18.067Z,14.20
2019-04-11T14:48:43.401Z,17.73
2019-04-11T14:54:20.683Z,15.37
2019-04-11T14:59:34.799Z,18.10
2019-04-11T15:05:01.169Z,17.93
2019-04-11T15:10:41.475Z,17.20
2019-04-11T15:16:11.145Z,14.30
2019-04-11T15:21:45.044Z,19.50
2019-04-11T15:26:56.889Z,16.53
2019-04-11T15:32:22.559Z,21.33
2019-04-11T15:37:50.696Z,16.63
2019-04-11T15:43:34.197Z,15.70
2019-04-11T15:49:04.232Z,13.93
2019-04-11T15:54:17.661Z,19.03
2019-04-11T15:59:57.330Z,15.90
2019-04-11T16:05:22.803Z,14.50
2019-04-11T16:10:29.619Z,13.10
2019-04-11T16:15:35.151Z,13.03
2019-04-11T16:20:40.166Z,14.00
2019-04-11T16:25:53.396Z,12.90
2019-04-11T16:30:59.883Z,11.07
2019-04-11T16:36:28.351Z,12.27
2019-04-11T16:41:51.696Z,16.63
2019-04-11T16:47:23.690Z,15.30
2019-04-11T16:52:29.110Z,14.10
2019-04-11T16:57:35.478Z,14.50
2019-04-11T17:02:42.844Z,13.63
2019-04-11T17:08:03.888Z,11.60
2019-04-11T17:13:09.861Z,12.50
2019-04-11T17:18:15.645Z,11.77
2019-04-11T17:23:21.539Z,13.33
2019-04-11T17:28:26.937Z,11.67
2019-04-11T17:33:33.864Z,11.60
2019-04-11T17:38:39.145Z,11.33
2019-04-11T17:43:46.704Z,17.50
2019-04-11T17:48:57.262Z,12.47
2019-04-11T17:54:04.132Z,13.00
2019-04-11T18:04:26.339Z,12.60
2019-04-11T18:09:32.189Z,12.90
2019-04-11T18:14:40.413Z,13.47
2019-04-11T18:19:45.701Z,12.17
2019-04-11T18:25:06.147Z,11.83
2019-04-11T18:30:13.277Z,11.70
2019-04-11T18:35:18.169Z,13.30
2019-04-11T18:40:23.617Z,14.70
2019-04-11T18:45:29.273Z,10.10
2019-04-11T18:50:34.953Z,12.50
2019-04-11T18:55:40.805Z,13.83
2019-04-11T19:00:46.065Z,12.53
2019-04-11T19:05:51.263Z,11.90
2019-04-11T19:10:55.707Z,17.00
2019-04-11T19:16:00.181Z,12.60
2019-04-11T19:21:04.827Z,11.90
2019-04-11T19:26:14.512Z,13.20
2019-04-11T19:31:27.696Z,14.93
2019-04-11T19:36:31.322Z,13.67
2019-04-11T19:41:48.661Z,11.33
2019-04-11T19:46:58.299Z,20.77
2019-04-11T19:52:03.371Z,11.77
2019-04-11T19:57:13.317Z,10.00
2019-04-11T20:02:23.368Z,10.67
2019-04-11T20:07:25.099Z,11.63
2019-04-11T20:12:30.731Z,10.53
2019-04-11T20:17:44.313Z,15.30
2019-04-11T20:22:42.927Z,14.50
2019-04-11T20:27:50.688Z,11.23
2019-04-11T20:32:55.917Z,13.07
2019-04-11T20:38:02.793Z,11.70
2019-04-11T20:43:10.110Z,11.03
2019-04-11T20:48:14.982Z,13.47
2019-04-11T20:53:19.360Z,14.50
2019-04-11T20:58:27.505Z,13.97
2019-04-11T21:03:31.795Z,17.20
2019-04-11T21:08:37.027Z,15.17
2019-04-11T21:13:42.266Z,14.70
2019-04-11T21:18:48.020Z,16.10
2019-04-11T21:23:52.980Z,18.00
2019-04-11T21:28:59.403Z,15.30
2019-04-11T21:34:04.893Z,17.77
2019-04-11T21:39:10.269Z,17.47
2019-04-11T21:44:15.874Z,17.40
2019-04-11T21:49:20.980Z,16.47
2019-04-11T21:54:25.978Z,16.23
2019-04-11T21:59:30.935Z,17.30
2019-04-11T22:04:37.013Z,18.03
2019-04-11T22:09:42.470Z,14.33
2019-04-11T22:14:48.008Z,15.13
2019-04-11T22:19:54.536Z,20.70
2019-04-11T22:24:59.856Z,14.97
2019-04-11T22:30:06.029Z,18.90
2019-04-11T22:35:11.264Z,14.80
2019-04-11T22:40:16.364Z,16.73
2019-04-11T22:45:21.174Z,21.27
2019-04-11T22:50:26.464Z,21.07
2019-04-11T22:55:31.264Z,15.10
2019-04-11T23:00:36.902Z,16.83
2019-04-11T23:05:46.588Z,21.00
2019-04-11T23:10:49.035Z,20.53
2019-04-11T23:15:53.046Z,16.57
2019-04-11T23:20:57.101Z,17.13
2019-04-11T23:26:01.258Z,15.97
2019-04-11T23:31:04.855Z,18.43
2019-04-11T23:36:08.578Z,19.33
2019-04-11T23:41:12.169Z,17.47
2019-04-11T23:46:15.938Z,18.47
2019-04-11T23:51:19.939Z,17.87
2019-04-11T23:56:23.357Z,19.23
